Time;durP1;ratioP1;P1;durP2;ratioP2;P2;SDS_P1;SDS_P2;PMS_P1;PMS_P2;Temp;Humidity;BMP_temperature;BMP_pressure;BME280_temperature;BME280_humidity;BME280_pressure;Samples;Min_cycle;Max_cycle;Signal;HPM_P1;HPM_P2
2022/03/15 00:00:19;;;;;;;;;8.75;8.50;;;;;11.93;55.55;102343.34;2443447;28;44703;-92
2022/03/15 00:01:29;;;;;;;;;8.50;8.25;;;;;11.90;55.55;102329.34;2450406;28;45375;-90
2022/03/15 00:02:40;;;;;;;;;10.00;9.25;;;;;11.90;55.44;102340.72;2450591;28;45156;-89
2022/03/15 00:03:50;;;;;;;;;12.75;11.00;;;;;11.90;55.92;102337.25;2449781;28;46919;-90
2022/03/15 00:05:01;;;;;;;;;11.75;9.75;;;;;11.90;55.63;102331.97;2450131;28;44693;-89
2022/03/15 00:06:12;;;;;;;;;9.25;9.25;;;;;11.90;55.53;102335.47;2450528;28;45539;-90
2022/03/15 00:07:22;;;;;;;;;12.50;9.75;;;;;11.90;55.43;102327.56;2450621;27;44696;-92
2022/03/15 00:08:33;;;;;;;;;6.50;6.50;;;;;11.89;55.70;102324.94;2449718;28;47248;-91
2022/03/15 00:09:43;;;;;;;;;10.25;10.25;;;;;11.89;55.56;102324.94;2450142;28;44784;-90
2022/03/15 00:11:02;;;;;;;;;11.50;9.25;;;;;11.89;55.52;102331.09;2442813;28;46189;-90
2022/03/15 00:12:13;;;;;;;;;10.75;7.75;;;;;11.89;55.64;102331.09;2447654;28;45309;-91
2022/03/15 00:13:28;;;;;;;;;11.75;7.50;;;;;11.88;55.57;102331.97;2449375;28;45716;-90
2022/03/15 00:14:38;;;;;;;;;12.25;8.25;;;;;11.89;55.76;102328.47;2450965;27;45230;-90
2022/03/15 00:15:50;;;;;;;;;10.50;7.25;;;;;11.89;55.70;102322.31;2450394;28;45281;-91
2022/03/15 00:17:05;;;;;;;;;8.75;8.50;;;;;11.89;55.58;102328.47;2449278;28;45542;-91
2022/03/15 00:18:15;;;;;;;;;8.75;7.75;;;;;11.87;55.67;102319.72;2449593;28;46338;-90
2022/03/15 00:19:26;;;;;;;;;8.00;4.25;;;;;11.87;55.39;102317.09;2450149;28;45214;-91
2022/03/15 00:20:37;;;;;;;;;9.25;8.25;;;;;11.85;55.90;102312.72;2442830;28;48186;-90
2022/03/15 00:21:47;;;;;;;;;9.75;8.00;;;;;11.87;55.62;102318.84;2450087;28;44771;-89
2022/03/15 00:22:59;;;;;;;;;8.00;6.75;;;;;11.82;55.99;102309.25;2448928;28;47012;-87
2022/03/15 00:24:09;;;;;;;;;11.25;9.75;;;;;11.84;55.92;102317.13;2450005;28;45472;-87
2022/03/15 00:25:20;;;;;;;;;8.00;8.00;;;;;11.84;55.89;102309.22;2450175;28;45316;-91
2022/03/15 00:26:30;;;;;;;;;12.00;11.50;;;;;11.84;55.79;102317.13;2450085;28;45303;-91
2022/03/15 00:27:41;;;;;;;;;10.00;8.50;;;;;11.82;56.09;102321.53;2442651;28;47974;-92
2022/03/15 00:28:51;;;;;;;;;8.50;7.50;;;;;11.84;56.00;102319.75;2449269;28;45300;-91
2022/03/15 00:30:05;;;;;;;;;7.00;7.00;;;;;11.83;56.05;102320.63;2451351;28;45510;-92
2022/03/15 00:31:15;;;;;;;;;10.50;8.25;;;;;11.83;56.16;102323.25;2451745;28;45429;-92
2022/03/15 00:32:26;;;;;;;;;11.75;9.25;;;;;11.83;56.10;102315.34;2444378;28;47255;-92
2022/03/15 00:33:37;;;;;;;;;13.75;11.75;;;;;11.84;55.91;102314.47;2451206;28;44611;-92
2022/03/15 00:34:47;;;;;;;;;10.50;9.00;;;;;11.82;55.92;102316.25;2444461;28;48148;-92
2022/03/15 00:35:59;;;;;;;;;8.75;8.75;;;;;11.84;55.87;102314.47;2444645;28;45185;-92
2022/03/15 00:37:09;;;;;;;;;11.25;9.00;;;;;11.85;55.81;102318.88;2451596;28;48050;-93
2022/03/15 00:38:20;;;;;;;;;11.50;9.50;;;;;11.82;55.80;102316.25;2451660;28;45231;-88
2022/03/15 00:39:30;;;;;;;;;10.00;8.25;;;;;11.82;55.99;102311.00;2444530;28;46522;-88
2022/03/15 00:40:41;;;;;;;;;13.25;11.25;;;;;11.84;56.02;102313.59;2451832;28;45241;-89
2022/03/15 00:41:52;;;;;;;;;11.00;9.50;;;;;11.84;55.98;102319.75;2451370;28;46264;-90
2022/03/15 00:43:02;;;;;;;;;7.50;7.50;;;;;11.84;56.10;102316.22;2451279;28;45452;-91
2022/03/15 00:44:13;;;;;;;;;12.25;11.00;;;;;11.84;55.92;102319.75;2451879;28;46093;-91
2022/03/15 00:45:24;;;;;;;;;11.50;10.00;;;;;11.85;55.99;102323.25;2451693;28;45397;-92
2022/03/15 00:46:34;;;;;;;;;9.00;8.50;;;;;11.84;56.37;102321.50;2444649;28;47272;-91
2022/03/15 00:47:45;;;;;;;;;11.75;9.75;;;;;11.85;56.19;102323.25;2451745;28;45450;-92
2022/03/15 00:48:55;;;;;;;;;13.75;11.00;;;;;11.83;56.35;102315.34;2444246;28;47332;-92
2022/03/15 00:50:06;;;;;;;;;10.50;7.25;;;;;11.85;56.36;102316.22;2451789;27;45390;-92
2022/03/15 00:51:17;;;;;;;;;8.50;8.50;;;;;11.84;56.50;102317.13;2451780;28;48333;-91
2022/03/15 00:52:27;;;;;;;;;10.75;7.25;;;;;11.84;56.28;102311.84;2444772;28;45228;-92
2022/03/15 00:53:37;;;;;;;;;7.00;6.75;;;;;11.83;56.52;102307.44;2451601;28;45239;-92
2022/03/15 00:54:48;;;;;;;;;11.25;10.25;;;;;11.84;56.76;102305.69;2451864;28;45246;-93
2022/03/15 00:55:59;;;;;;;;;6.75;6.75;;;;;11.81;56.37;102302.22;2451572;28;47134;-92
2022/03/15 00:57:10;;;;;;;;;12.00;8.75;;;;;11.84;56.59;102303.94;2451513;28;45351;-89
2022/03/15 00:58:22;;;;;;;;;11.75;8.00;;;;;11.81;56.40;102304.84;2451641;28;45316;-90
2022/03/15 00:59:32;;;;;;;;;10.75;7.00;;;;;11.81;56.53;102301.34;2452183;28;45274;-90
2022/03/15 01:00:48;;;;;;;;;9.75;8.00;;;;;11.82;56.81;102303.97;2451290;28;45915;-90
2022/03/15 01:01:58;;;;;;;;;10.50;8.50;;;;;11.82;56.48;102303.09;2445009;28;45292;-90
2022/03/15 01:03:08;;;;;;;;;11.25;10.75;;;;;11.81;56.85;102296.06;2443728;28;45940;-90
2022/03/15 01:04:19;;;;;;;;;14.25;8.75;;;;;11.83;56.14;102296.91;2451509;28;45256;-90
2022/03/15 01:05:30;;;;;;;;;9.25;7.00;;;;;11.81;56.61;102294.31;2451799;27;45309;-90
2022/03/15 01:06:42;;;;;;;;;8.00;8.00;;;;;11.80;56.75;102292.56;2451213;28;45237;-89
2022/03/15 01:07:52;;;;;;;;;6.00;6.00;;;;;11.80;56.76;102292.56;2451546;28;46182;-87
2022/03/15 01:09:03;;;;;;;;;9.25;9.25;;;;;11.82;56.88;102292.56;2452220;27;45164;-84
2022/03/15 01:10:14;;;;;;;;;12.50;8.75;;;;;11.80;56.92;102291.72;2452074;27;46412;-85
2022/03/15 01:11:25;;;;;;;;;11.00;8.50;;;;;11.81;56.96;102289.03;2459436;27;45320;-87
2022/03/15 01:12:35;;;;;;;;;6.50;6.25;;;;;11.81;56.92;102288.16;2451599;28;45519;-87
2022/03/15 01:13:46;;;;;;;;;12.00;8.50;;;;;11.84;56.90;102290.78;2451700;27;46197;-89
2022/03/15 01:14:56;;;;;;;;;8.00;7.75;;;;;11.83;56.44;102291.66;2450823;28;46839;-90
2022/03/15 01:16:06;;;;;;;;;7.25;6.75;;;;;11.84;56.81;102288.13;2451191;28;45234;-89
2022/03/15 01:17:17;;;;;;;;;7.75;6.75;;;;;11.85;56.51;102279.34;2451946;28;45329;-89
2022/03/15 01:18:27;;;;;;;;;7.50;7.00;;;;;11.86;56.26;102281.06;2451775;28;45218;-90
2022/03/15 01:19:38;;;;;;;;;9.25;7.25;;;;;11.87;56.29;102274.06;2451046;28;47068;-89
2022/03/15 01:20:51;;;;;;;;;9.00;7.00;;;;;11.85;56.50;102279.34;2451400;28;45268;-89
2022/03/15 01:22:01;;;;;;;;;9.50;8.50;;;;;11.85;56.56;102270.56;2451967;28;46466;-88
2022/03/15 01:23:12;;;;;;;;;7.75;6.75;;;;;11.87;56.17;102272.28;2450328;28;45366;-88
2022/03/15 01:24:23;;;;;;;;;8.00;6.50;;;;;11.87;56.66;102267.03;2444072;28;47545;-89
2022/03/15 01:25:33;;;;;;;;;8.50;5.50;;;;;11.88;56.56;102274.00;2444168;28;44760;-89
2022/03/15 01:26:44;;;;;;;;;8.75;5.00;;;;;11.88;56.54;102265.22;2451175;27;45741;-89
2022/03/15 01:27:55;;;;;;;;;5.25;5.25;;;;;11.89;56.30;102273.13;2451123;27;45456;-89
2022/03/15 01:29:06;;;;;;;;;6.25;6.25;;;;;11.89;56.33;102265.22;2451417;28;46454;-89
2022/03/15 01:30:16;;;;;;;;;3.75;3.50;;;;;11.89;56.43;102267.00;2451262;28;45229;-88
2022/03/15 01:31:27;;;;;;;;;8.25;7.50;;;;;11.92;56.35;102264.31;2443949;28;47098;-88
2022/03/15 01:32:38;;;;;;;;;8.75;7.00;;;;;11.90;56.32;102263.47;2443933;28;44768;-89
2022/03/15 01:33:48;;;;;;;;;9.00;7.00;;;;;11.90;56.53;102260.84;2451075;28;46313;-89
2022/03/15 01:34:58;;;;;;;;;6.00;5.50;;;;;11.91;56.51;102255.53;2451741;28;45228;-88
2022/03/15 01:36:09;;;;;;;;;8.75;8.75;;;;;11.93;56.71;102260.78;2450927;28;46082;-89
2022/03/15 01:37:19;;;;;;;;;6.75;5.50;;;;;11.91;56.60;102252.91;2451290;28;45275;-88
2022/03/15 01:38:30;;;;;;;;;10.00;5.50;;;;;11.91;56.73;102249.38;2451827;28;45270;-87
2022/03/15 01:39:40;;;;;;;;;7.50;5.50;;;;;11.93;56.73;102259.00;2451839;27;45195;-87
2022/03/15 01:40:51;;;;;;;;;8.00;6.25;;;;;11.93;56.62;102250.22;2450622;28;45441;-86
2022/03/15 01:42:02;;;;;;;;;8.25;6.75;;;;;11.96;56.57;102254.59;2451542;28;45202;-88
2022/03/15 01:43:12;;;;;;;;;8.50;7.50;;;;;11.96;56.41;102247.56;2450827;28;47809;-86
2022/03/15 01:44:23;;;;;;;;;7.25;6.00;;;;;11.98;56.60;102245.78;2451013;28;45448;-87
2022/03/15 01:45:36;;;;;;;;;10.00;7.00;;;;;12.00;56.63;102253.69;2451657;27;45447;-86
2022/03/15 01:46:48;;;;;;;;;5.50;3.50;;;;;12.02;56.50;102251.88;2451950;27;44719;-88
2022/03/15 01:47:58;;;;;;;;;7.50;6.00;;;;;12.00;56.45;102245.78;2451237;27;45751;-87
2022/03/15 01:49:09;;;;;;;;;6.75;6.00;;;;;12.03;56.54;102243.94;2451006;28;44583;-88
2022/03/15 01:50:21;;;;;;;;;6.00;5.75;;;;;12.03;56.68;102245.69;2450950;28;46338;-87
2022/03/15 01:51:31;;;;;;;;;5.50;5.50;;;;;12.03;56.57;102240.44;2451462;27;45711;-87
2022/03/15 01:52:42;;;;;;;;;7.50;5.50;;;;;12.04;56.77;102242.19;2450923;28;46323;-86
2022/03/15 01:53:53;;;;;;;;;7.00;7.00;;;;;12.04;56.83;102235.16;2451139;28;45309;-86
2022/03/15 01:55:05;;;;;;;;;6.25;6.00;;;;;12.06;56.74;102239.50;2451545;27;45428;-86
2022/03/15 01:56:15;;;;;;;;;7.00;7.00;;;;;12.04;56.66;102231.66;2451752;27;44762;-85
2022/03/15 01:57:25;;;;;;;;;8.75;7.00;;;;;12.04;56.68;102229.00;2450819;28;47032;-85
2022/03/15 01:58:36;;;;;;;;;10.75;6.50;;;;;12.06;57.12;102229.84;2451144;28;45869;-92
2022/03/15 01:59:46;;;;;;;;;7.50;7.25;;;;;12.07;56.47;102230.72;2450896;28;47927;-91
2022/03/15 02:00:56;;;;;;;;;8.50;8.50;;;;;12.06;56.67;102227.22;2451227;28;45228;-92
2022/03/15 02:02:08;;;;;;;;;6.75;5.50;;;;;12.08;57.30;102230.69;2444089;28;46997;-91
2022/03/15 02:03:19;;;;;;;;;9.25;7.75;;;;;12.07;56.76;102221.06;2450783;28;44650;-90
2022/03/15 02:04:29;;;;;;;;;7.50;5.50;;;;;12.09;56.94;102216.63;2451099;28;45429;-90
2022/03/15 02:05:39;;;;;;;;;7.75;6.50;;;;;12.09;56.55;102223.66;2450952;28;45180;-91
2022/03/15 02:07:04;;;;;;;;;8.75;7.00;;;;;12.09;57.12;102216.63;2443445;28;46890;-91
2022/03/15 02:08:16;;;;;;;;;8.75;7.75;;;;;12.10;56.99;102213.09;2451670;28;45380;-92
2022/03/15 02:09:26;;;;;;;;;5.50;4.25;;;;;12.11;57.10;102208.69;2450661;28;47532;-91
2022/03/15 02:10:37;;;;;;;;;9.75;7.75;;;;;12.11;57.10;102206.94;2444281;28;45225;-92
2022/03/15 02:11:47;;;;;;;;;5.75;5.75;;;;;12.12;57.24;102216.56;2451066;28;45447;-92
2022/03/15 02:12:58;;;;;;;;;9.25;7.00;;;;;12.11;57.32;102209.56;2450902;28;45187;-91
2022/03/15 02:14:08;;;;;;;;;8.75;8.50;;;;;12.12;57.09;102211.28;2443499;28;47803;-91
2022/03/15 02:15:19;;;;;;;;;8.25;5.75;;;;;12.13;57.25;102207.81;2451216;27;45278;-92
2022/03/15 02:16:30;;;;;;;;;7.25;7.00;;;;;12.15;57.18;102210.41;2443635;28;48202;-94
2022/03/15 02:17:40;;;;;;;;;7.50;7.25;;;;;12.13;57.46;102199.91;2444152;28;44611;-93
2022/03/15 02:18:50;;;;;;;;;8.75;5.50;;;;;12.13;57.57;102199.91;2443863;28;47155;-94
2022/03/15 02:20:06;;;;;;;;;7.75;6.75;;;;;12.16;57.49;102204.25;2451143;28;45249;-94
2022/03/15 02:21:16;;;;;;;;;9.50;7.50;;;;;12.15;57.65;102198.09;2451135;27;48976;-93
2022/03/15 02:22:27;;;;;;;;;7.75;6.75;;;;;12.16;57.55;102201.63;2444107;28;45225;-93
2022/03/15 02:23:37;;;;;;;;;9.25;8.00;;;;;12.17;57.62;102199.84;2451147;28;46377;-93
2022/03/15 02:24:48;;;;;;;;;10.75;9.75;;;;;12.18;57.62;102191.03;2451962;28;45262;-95
2022/03/15 02:25:58;;;;;;;;;7.75;6.75;;;;;12.18;57.58;102193.66;2450967;28;47316;-93
2022/03/15 02:27:09;;;;;;;;;9.50;7.25;;;;;12.19;57.49;102192.78;2444085;28;45281;-93
2022/03/15 02:28:19;;;;;;;;;5.50;4.75;;;;;12.19;57.49;102193.66;2443744;28;48118;-93
2022/03/15 02:29:30;;;;;;;;;7.25;6.25;;;;;12.20;57.57;102186.63;2443878;28;45310;-92
2022/03/15 02:30:40;;;;;;;;;9.00;6.75;;;;;12.21;57.70;102186.59;2443624;28;47121;-92
2022/03/15 02:31:51;;;;;;;;;7.00;5.75;;;;;12.22;57.88;102187.47;2444052;28;45203;-93
2022/03/15 02:33:01;;;;;;;;;8.00;7.00;;;;;12.22;57.75;102187.47;2443352;28;46975;-91
2022/03/15 02:34:12;;;;;;;;;8.75;8.50;;;;;12.22;57.78;102180.41;2450989;28;45424;-92
2022/03/15 02:35:22;;;;;;;;;8.00;7.00;;;;;12.24;57.67;102185.69;2443245;28;47363;-91
2022/03/15 02:36:33;;;;;;;;;8.25;7.50;;;;;12.23;57.88;102179.53;2443734;28;45461;-92
2022/03/15 02:37:43;;;;;;;;;8.50;7.25;;;;;12.22;57.79;102171.66;2443532;28;47069;-92
2022/03/15 02:38:54;;;;;;;;;7.00;7.00;;;;;12.22;58.01;102175.16;2451019;28;45310;-94
2022/03/15 02:40:05;;;;;;;;;7.75;7.00;;;;;12.24;57.95;102177.78;2451062;28;47058;-94
2022/03/15 02:41:15;;;;;;;;;8.00;7.50;;;;;12.24;58.20;102177.78;2444151;28;45477;-93
2022/03/15 02:42:26;;;;;;;;;9.50;6.25;;;;;12.23;58.02;102173.38;2443846;28;47134;-96
2022/03/15 02:43:37;;;;;;;;;7.75;7.25;;;;;12.23;58.33;102170.75;2444042;28;45435;-93
2022/03/15 02:44:47;;;;;;;;;7.25;6.50;;;;;12.24;58.40;102169.88;2444262;28;47562;-95
2022/03/15 02:45:58;;;;;;;;;6.75;6.50;;;;;12.23;58.48;102174.25;2443940;28;45232;-91
2022/03/15 02:47:08;;;;;;;;;11.25;8.00;;;;;12.23;58.53;102166.34;2450590;28;48263;-90
2022/03/15 02:48:19;;;;;;;;;8.50;6.50;;;;;12.24;58.55;102173.38;2450449;28;45295;-89
2022/03/15 02:49:29;;;;;;;;;8.50;7.50;;;;;12.25;58.73;102175.09;2450185;28;46369;-89
2022/03/15 02:50:39;;;;;;;;;11.25;8.25;;;;;12.25;58.51;102172.47;2450763;28;45268;-90
2022/03/15 02:51:50;;;;;;;;;8.25;7.50;;;;;12.25;58.79;102166.31;2451251;27;46404;-88
2022/03/15 02:53:00;;;;;;;;;8.50;7.25;;;;;12.26;58.77;102168.06;2450979;27;45155;-86
2022/03/15 02:54:13;;;;;;;;;8.50;8.00;;;;;12.26;58.84;102163.66;2451077;28;45185;-86
2022/03/15 02:55:25;;;;;;;;;11.25;8.00;;;;;12.26;59.24;102163.66;2451333;28;44697;-86
2022/03/15 02:56:39;;;;;;;;;13.25;11.00;;;;;12.26;59.09;102160.16;2451147;27;45434;-86
2022/03/15 02:57:49;;;;;;;;;5.25;5.00;;;;;12.26;59.33;102157.53;2451136;28;45160;-85
2022/03/15 02:59:00;;;;;;;;;9.50;8.00;;;;;12.26;59.25;102160.16;2451122;27;46069;-85
2022/03/15 03:00:11;;;;;;;;;12.50;8.50;;;;;12.28;59.57;102158.38;2451473;27;44676;-85
2022/03/15 03:01:21;;;;;;;;;8.25;7.25;;;;;12.27;59.42;102154.84;2451032;27;45244;-85
2022/03/15 03:02:33;;;;;;;;;12.00;9.25;;;;;12.27;59.55;102152.22;2449922;28;44694;-84
2022/03/15 03:03:44;;;;;;;;;11.75;11.25;;;;;12.25;59.80;102143.47;2447740;28;47451;-85
2022/03/15 03:04:54;;;;;;;;;9.50;8.25;;;;;12.26;59.96;102141.72;2450571;28;45219;-83
2022/03/15 03:06:04;;;;;;;;;13.00;9.25;;;;;12.28;59.96;102145.19;2450385;27;45478;-83
2022/03/15 03:07:17;;;;;;;;;9.50;8.25;;;;;12.28;59.97;102139.91;2451345;28;44724;-83
2022/03/15 03:08:27;;;;;;;;;8.50;8.50;;;;;12.29;60.35;102146.94;2450977;27;46076;-83
2022/03/15 03:09:38;;;;;;;;;13.50;9.75;;;;;12.27;60.13;102140.81;2451212;27;45218;-84
2022/03/15 03:10:48;;;;;;;;;7.75;4.00;;;;;12.28;59.90;102139.91;2456290;27;45273;-90
2022/03/15 03:11:59;;;;;;;;;8.75;8.25;;;;;12.28;60.21;102145.19;2450032;27;45296;-88
2022/03/15 03:13:11;;;;;;;;;12.25;10.25;;;;;12.31;60.33;102154.81;2442728;28;47121;-89
2022/03/15 03:14:21;;;;;;;;;9.25;7.50;;;;;12.29;60.48;102149.56;2450826;28;45181;-89
2022/03/15 03:15:32;;;;;;;;;11.25;11.25;;;;;12.30;60.68;102151.28;2451073;27;45589;-88
2022/03/15 03:16:42;;;;;;;;;11.25;10.50;;;;;12.29;60.74;102143.41;2450909;28;44742;-88
2022/03/15 03:17:53;;;;;;;;;11.00;11.00;;;;;12.30;60.60;102151.28;2449736;28;46958;-87
2022/03/15 03:19:07;;;;;;;;;12.00;10.75;;;;;12.29;60.85;102139.03;2442904;28;45317;-86
2022/03/15 03:20:19;;;;;;;;;11.75;7.75;;;;;12.31;60.74;102145.13;2450163;28;47443;-87
2022/03/15 03:21:30;;;;;;;;;14.00;8.50;;;;;12.29;60.85;102141.66;2450126;28;45446;-83
2022/03/15 03:22:41;;;;;;;;;8.50;8.00;;;;;12.30;61.17;102140.75;2449797;28;48382;-83
2022/03/15 03:23:53;;;;;;;;;7.75;7.75;;;;;12.30;61.00;102137.25;2450373;28;45496;-84
2022/03/15 03:25:05;;;;;;;;;9.25;8.50;;;;;12.29;61.03;102140.78;2451039;27;45354;-83
2022/03/15 03:26:16;;;;;;;;;8.75;7.75;;;;;12.30;61.15;102137.25;2450220;28;45377;-83
2022/03/15 03:27:26;;;;;;;;;12.75;10.50;;;;;12.30;61.40;102138.09;2450405;28;46392;-83
2022/03/15 03:28:37;;;;;;;;;14.25;9.75;;;;;12.31;61.41;102138.97;2451071;28;45285;-83
2022/03/15 03:29:48;;;;;;;;;12.50;7.00;;;;;12.31;61.67;102139.84;2450822;28;45290;-83
2022/03/15 03:30:58;;;;;;;;;12.75;8.50;;;;;12.30;61.53;102139.91;2450962;27;45248;-83
2022/03/15 03:32:09;;;;;;;;;11.50;10.00;;;;;12.32;61.48;102146.84;2450089;28;48041;-83
2022/03/15 03:33:20;;;;;;;;;8.75;8.75;;;;;12.31;61.69;102138.97;2450066;28;45448;-89
2022/03/15 03:34:30;;;;;;;;;10.25;8.25;;;;;12.31;61.82;102139.84;2450045;28;46915;-90
2022/03/15 03:35:41;;;;;;;;;9.00;8.00;;;;;12.30;61.70;102140.75;2443123;28;45318;-89
2022/03/15 03:36:51;;;;;;;;;8.00;8.00;;;;;12.31;61.76;102146.91;2450098;28;47749;-89
2022/03/15 03:38:04;;;;;;;;;8.50;8.25;;;;;12.31;61.97;102138.97;2443210;28;45380;-90
2022/03/15 03:39:14;;;;;;;;;8.00;8.00;;;;;12.31;61.95;102145.13;2450441;28;46160;-91
2022/03/15 03:40:25;;;;;;;;;8.50;8.50;;;;;12.33;61.81;102143.34;2450061;28;45481;-90
2022/03/15 03:41:37;;;;;;;;;11.75;11.00;;;;;12.31;62.03;102145.13;2450163;28;46193;-86
2022/03/15 03:42:47;;;;;;;;;10.50;10.25;;;;;12.32;62.21;102146.84;2449846;28;45256;-87
2022/03/15 03:43:58;;;;;;;;;10.50;9.50;;;;;12.31;62.03;102141.63;2450844;28;45234;-87
2022/03/15 03:45:08;;;;;;;;;11.25;8.50;;;;;12.31;62.13;102134.59;2451015;28;45285;-87
2022/03/15 03:46:19;;;;;;;;;7.75;7.25;;;;;12.32;62.30;102144.22;2450849;27;45276;-87
2022/03/15 03:47:30;;;;;;;;;8.50;8.50;;;;;12.31;62.46;102133.72;2451011;27;45486;-87
2022/03/15 03:48:40;;;;;;;;;12.00;12.00;;;;;12.31;62.16;102133.72;2450284;28;45604;-87
2022/03/15 03:49:51;;;;;;;;;11.50;9.75;;;;;12.31;62.65;102137.22;2450848;27;45241;-87
2022/03/15 03:51:02;;;;;;;;;11.00;10.25;;;;;12.30;62.55;102138.09;2450436;27;45200;-86
2022/03/15 03:52:13;;;;;;;;;14.00;11.75;;;;;12.32;62.52;102138.09;2450971;28;45458;-90
2022/03/15 03:53:24;;;;;;;;;9.75;9.75;;;;;12.30;62.62;102135.47;2449953;28;47048;-88
2022/03/15 03:54:35;;;;;;;;;12.25;11.25;;;;;12.32;62.84;102131.03;2450475;28;45315;-89
2022/03/15 03:55:45;;;;;;;;;9.50;8.25;;;;;12.32;62.90;102133.66;2450687;27;45539;-88
2022/03/15 03:56:55;;;;;;;;;9.25;8.50;;;;;12.30;62.67;102127.56;2450559;27;45411;-86
2022/03/15 03:58:06;;;;;;;;;13.00;11.75;;;;;12.33;63.09;102132.78;2450892;27;45379;-86
2022/03/15 03:59:17;;;;;;;;;11.75;11.00;;;;;12.32;63.33;102135.47;2450735;27;45295;-86
2022/03/15 04:00:27;;;;;;;;;9.50;7.75;;;;;12.30;63.00;102138.09;2449730;28;46963;-84
2022/03/15 04:01:39;;;;;;;;;9.75;7.75;;;;;12.31;63.33;102138.97;2450508;28;45239;-85
2022/03/15 04:02:51;;;;;;;;;8.50;8.00;;;;;12.32;63.03;102138.94;2450229;28;45376;-84
2022/03/15 04:04:03;;;;;;;;;15.75;11.25;;;;;12.30;63.22;102130.19;2451201;28;44609;-85
2022/03/15 04:05:16;;;;;;;;;11.50;9.50;;;;;12.31;63.22;102131.94;2452263;27;45553;-85
2022/03/15 04:06:26;;;;;;;;;10.50;10.00;;;;;12.30;63.32;102130.19;2452526;28;45337;-84
2022/03/15 04:07:37;;;;;;;;;14.75;9.25;;;;;12.31;63.39;102123.16;2451596;28;47251;-84
2022/03/15 04:08:48;;;;;;;;;11.25;11.25;;;;;12.31;63.54;102126.69;2452051;28;45212;-84
2022/03/15 04:09:59;;;;;;;;;13.00;11.50;;;;;12.32;63.49;102125.75;2452405;28;45220;-84
2022/03/15 04:11:10;;;;;;;;;10.75;10.00;;;;;12.31;63.58;102121.41;2452659;27;45229;-91
2022/03/15 04:12:21;;;;;;;;;10.75;8.25;;;;;12.31;63.47;102113.50;2452260;27;45443;-91
2022/03/15 04:13:32;;;;;;;;;10.50;8.50;;;;;12.31;63.91;102113.50;2452715;27;45346;-91
2022/03/15 04:14:45;;;;;;;;;11.50;11.50;;;;;12.30;63.61;102114.38;2451635;28;47156;-90
2022/03/15 04:15:55;;;;;;;;;11.50;10.00;;;;;12.32;64.01;102114.38;2451885;28;44715;-90
2022/03/15 04:17:09;;;;;;;;;7.75;7.75;;;;;12.30;63.86;102109.09;2451428;28;47251;-90
2022/03/15 04:18:20;;;;;;;;;10.00;10.00;;;;;12.31;64.09;102112.63;2444646;28;45245;-87
2022/03/15 04:19:30;;;;;;;;;11.00;10.75;;;;;12.29;64.04;102107.38;2451936;28;46455;-87
2022/03/15 04:20:41;;;;;;;;;10.75;10.75;;;;;12.32;64.03;102106.47;2451321;28;45219;-87
2022/03/15 04:21:52;;;;;;;;;13.50;10.25;;;;;12.30;64.17;102105.63;2451769;28;45491;-87
2022/03/15 04:23:02;;;;;;;;;14.00;11.00;;;;;12.31;64.15;102102.06;2452454;28;45306;-87
2022/03/15 04:24:14;;;;;;;;;12.75;10.75;;;;;12.30;63.97;102095.09;2452273;27;45361;-88
2022/03/15 04:25:25;;;;;;;;;13.50;9.50;;;;;12.29;64.18;102104.75;2452403;27;45514;-88
2022/03/15 04:26:36;;;;;;;;;15.25;11.00;;;;;12.32;64.42;102099.41;2452237;27;45917;-88
2022/03/15 04:27:46;;;;;;;;;10.75;10.75;;;;;12.30;64.42;102101.19;2452693;27;45426;-88
2022/03/15 04:28:56;;;;;;;;;12.00;12.00;;;;;12.32;64.42;102107.31;2452207;27;46267;-86
2022/03/15 04:30:07;;;;;;;;;9.50;9.50;;;;;12.30;64.35;102100.34;2452370;27;45194;-86
2022/03/15 04:31:18;;;;;;;;;10.25;8.25;;;;;12.30;64.53;102101.19;2451929;28;46462;-86
2022/03/15 04:32:29;;;;;;;;;12.25;10.25;;;;;12.31;64.80;102108.22;2452157;28;45157;-86
2022/03/15 04:33:40;;;;;;;;;9.50;8.50;;;;;12.30;64.80;102106.47;2452130;27;45309;-86
2022/03/15 04:34:50;;;;;;;;;14.25;12.75;;;;;12.31;64.92;102102.94;2451371;28;44787;-89
2022/03/15 04:36:01;;;;;;;;;10.50;8.50;;;;;12.31;64.74;102097.69;2464132;27;47633;-92
2022/03/15 04:37:11;;;;;;;;;11.50;10.00;;;;;12.32;65.00;102101.19;2458972;27;45172;-92
2022/03/15 04:38:21;;;;;;;;;11.50;9.50;;;;;12.30;64.94;102095.09;2444848;28;47490;-92
2022/03/15 04:39:33;;;;;;;;;13.75;12.00;;;;;12.31;65.01;102094.16;2444534;28;45228;-84
2022/03/15 04:40:43;;;;;;;;;16.50;12.50;;;;;12.29;65.10;102094.22;2451465;28;46194;-84
2022/03/15 04:41:54;;;;;;;;;13.25;12.00;;;;;12.31;65.28;102099.44;2452086;28;45321;-84
2022/03/15 04:43:06;;;;;;;;;12.75;11.75;;;;;12.29;64.99;102098.59;2449796;28;45507;-84
2022/03/15 04:44:17;;;;;;;;;14.00;12.00;;;;;12.31;65.23;102096.81;2452255;28;45435;-84
2022/03/15 04:45:28;;;;;;;;;11.50;11.25;;;;;12.30;65.16;102101.19;2451252;28;48247;-86
2022/03/15 04:46:38;;;;;;;;;13.00;12.00;;;;;12.29;65.11;102094.22;2451936;28;45271;-87
2022/03/15 04:47:49;;;;;;;;;10.50;10.25;;;;;12.30;65.27;102088.03;2451778;27;46482;-87
2022/03/15 04:49:00;;;;;;;;;10.50;9.25;;;;;12.32;65.16;102094.13;2451104;28;45233;-88
2022/03/15 04:50:10;;;;;;;;;11.00;9.50;;;;;12.32;65.11;102088.00;2451630;28;45892;-87
2022/03/15 04:51:21;;;;;;;;;11.25;11.25;;;;;12.31;65.21;102083.63;2451172;28;45243;-87
2022/03/15 04:52:33;;;;;;;;;8.75;8.00;;;;;12.32;65.25;102088.00;2451634;28;46625;-87
2022/03/15 04:53:43;;;;;;;;;16.25;15.00;;;;;12.32;65.11;102086.22;2452163;27;45227;-87
2022/03/15 04:54:54;;;;;;;;;13.25;10.25;;;;;12.32;65.40;102091.50;2452144;27;45361;-91
2022/03/15 04:56:04;;;;;;;;;11.25;9.50;;;;;12.34;65.37;102092.34;2451556;28;45323;-89
2022/03/15 04:57:15;;;;;;;;;9.50;9.50;;;;;12.34;65.41;102102.91;2444157;28;46295;-86
2022/03/15 04:58:25;;;;;;;;;13.75;11.75;;;;;12.33;65.46;102093.25;2451800;28;45394;-86
2022/03/15 04:59:36;;;;;;;;;12.75;10.50;;;;;12.34;65.52;102091.47;2451978;27;45448;-86
2022/03/15 05:00:46;;;;;;;;;11.50;10.00;;;;;12.34;65.49;102096.75;2451869;28;45433;-86
2022/03/15 05:01:56;;;;;;;;;11.50;9.25;;;;;12.32;65.50;102088.00;2451042;28;47199;-86
2022/03/15 05:03:07;;;;;;;;;12.50;11.75;;;;;12.34;65.58;102088.84;2450960;28;45262;-86
2022/03/15 05:04:17;;;;;;;;;10.75;10.75;;;;;12.32;65.86;102080.09;2452192;27;46263;-86
2022/03/15 05:05:27;;;;;;;;;11.75;9.50;;;;;12.32;65.60;102078.31;2452498;27;45212;-84
2022/03/15 05:06:39;;;;;;;;;10.75;10.00;;;;;12.32;65.76;102078.31;2451932;28;46445;-85
2022/03/15 05:07:49;;;;;;;;;13.50;8.00;;;;;12.33;65.50;102079.19;2452052;28;45218;-85
2022/03/15 05:08:59;;;;;;;;;11.25;9.00;;;;;12.32;65.58;102080.09;2451152;28;48112;-86
2022/03/15 05:11:44;;;;;;;;;14.50;12.25;;;;;12.31;65.63;102076.59;2451831;28;45784;-84
2022/03/15 05:12:54;;;;;;;;;14.00;13.50;;;;;12.32;66.06;102078.31;2451863;27;44675;-83
2022/03/15 05:14:04;;;;;;;;;9.00;7.75;;;;;12.33;65.76;102079.19;2451563;27;46468;-83
2022/03/15 05:15:15;;;;;;;;;11.25;10.00;;;;;12.35;65.93;102080.03;2451736;28;45210;-83
2022/03/15 05:16:25;;;;;;;;;10.00;8.75;;;;;12.34;65.79;102080.94;2450925;28;46664;-83
2022/03/15 05:17:38;;;;;;;;;14.00;10.00;;;;;12.33;65.82;102079.19;2451880;28;45136;-83
2022/03/15 05:18:53;;;;;;;;;8.50;8.50;;;;;12.32;65.72;102077.47;2451747;28;45420;-86
2022/03/15 05:20:07;;;;;;;;;17.00;11.75;;;;;12.34;65.92;102080.94;2460195;27;45476;-83
2022/03/15 05:21:22;;;;;;;;;10.00;9.00;;;;;12.33;66.21;102085.34;2458021;27;45535;-89
2022/03/15 05:22:33;;;;;;;;;11.75;9.50;;;;;12.32;65.99;102083.59;2460770;27;44760;-87
2022/03/15 05:23:47;;;;;;;;;9.00;8.25;;;;;12.32;66.16;102083.59;2444078;28;46469;-86
2022/03/15 05:24:58;;;;;;;;;13.25;12.25;;;;;12.35;66.28;102087.94;2451156;28;45206;-86
2022/03/15 05:26:09;;;;;;;;;13.75;11.00;;;;;12.32;66.09;102086.22;2451889;27;46644;-87
2022/03/15 05:27:19;;;;;;;;;9.50;9.50;;;;;12.34;66.21;102087.09;2452106;28;44591;-86
2022/03/15 05:28:30;;;;;;;;;11.50;11.50;;;;;12.32;66.25;102075.66;2451827;27;45322;-85